sensor_id;sensor_type;location;lat;lon;timestamp;P1;durP1;ratioP1;P2;durP2;ratioP2
69856;SDS011;57147;53.582;10.112;2023-04-03T00:00:09;6.15;;;4.43;;
69856;SDS011;57147;53.582;10.112;2023-04-03T00:05:11;5.20;;;2.97;;
69856;SDS011;57147;53.582;10.112;2023-04-03T00:10:11;9.02;;;4.47;;
69856;SDS011;57147;53.582;10.112;2023-04-03T00:15:14;6.97;;;4.22;;
69856;SDS011;57147;53.582;10.112;2023-04-03T00:20:15;6.50;;;3.03;;
69856;SDS011;57147;53.582;10.112;2023-04-03T00:25:16;7.47;;;4.63;;
69856;SDS011;57147;53.582;10.112;2023-04-03T00:30:19;7.25;;;4.20;;
69856;SDS011;57147;53.582;10.112;2023-04-03T00:35:21;7.55;;;3.92;;
69856;SDS011;57147;53.582;10.112;2023-04-03T00:40:24;5.35;;;3.05;;
69856;SDS011;57147;53.582;10.112;2023-04-03T00:45:30;9.45;;;3.75;;
69856;SDS011;57147;53.582;10.112;2023-04-03T00:50:33;6.68;;;4.10;;
69856;SDS011;57147;53.582;10.112;2023-04-03T00:55:37;6.97;;;4.57;;
69856;SDS011;57147;53.582;10.112;2023-04-03T01:00:42;6.35;;;3.78;;
69856;SDS011;57147;53.582;10.112;2023-04-03T01:05:46;7.88;;;5.13;;
69856;SDS011;57147;53.582;10.112;2023-04-03T01:10:47;6.38;;;4.07;;
69856;SDS011;57147;53.582;10.112;2023-04-03T01:15:50;9.48;;;5.07;;
69856;SDS011;57147;53.582;10.112;2023-04-03T01:26:24;5.10;;;2.53;;
69856;SDS011;57147;53.582;10.112;2023-04-03T01:31:28;6.78;;;5.45;;
69856;SDS011;57147;53.582;10.112;2023-04-03T01:36:34;6.00;;;4.95;;
69856;SDS011;57147;53.582;10.112;2023-04-03T01:41:35;8.77;;;4.65;;
69856;SDS011;57147;53.582;10.112;2023-04-03T01:46:35;5.88;;;5.28;;
69856;SDS011;57147;53.582;10.112;2023-04-03T01:51:38;9.30;;;5.22;;
69856;SDS011;57147;53.582;10.112;2023-04-03T01:56:39;5.97;;;3.88;;
69856;SDS011;57147;53.582;10.112;2023-04-03T02:01:40;9.90;;;4.93;;
69856;SDS011;57147;53.582;10.112;2023-04-03T02:06:43;5.90;;;4.63;;
69856;SDS011;57147;53.582;10.112;2023-04-03T02:11:43;4.50;;;2.05;;
69856;SDS011;57147;53.582;10.112;2023-04-03T02:16:46;6.57;;;4.38;;
69856;SDS011;57147;53.582;10.112;2023-04-03T02:21:49;6.47;;;2.60;;
69856;SDS011;57147;53.582;10.112;2023-04-03T02:26:50;5.70;;;4.25;;
69856;SDS011;57147;53.582;10.112;2023-04-03T02:31:51;7.68;;;2.35;;
69856;SDS011;57147;53.582;10.112;2023-04-03T02:36:54;6.40;;;5.32;;
69856;SDS011;57147;53.582;10.112;2023-04-03T02:41:55;7.38;;;4.45;;
69856;SDS011;57147;53.582;10.112;2023-04-03T02:46:56;5.90;;;4.07;;
69856;SDS011;57147;53.582;10.112;2023-04-03T02:51:59;6.63;;;4.65;;
69856;SDS011;57147;53.582;10.112;2023-04-03T02:56:59;6.10;;;5.50;;
69856;SDS011;57147;53.582;10.112;2023-04-03T03:02:00;6.43;;;3.53;;
69856;SDS011;57147;53.582;10.112;2023-04-03T03:07:03;9.52;;;6.82;;
69856;SDS011;57147;53.582;10.112;2023-04-03T03:12:04;9.52;;;5.00;;
69856;SDS011;57147;53.582;10.112;2023-04-03T03:17:05;7.93;;;5.78;;
69856;SDS011;57147;53.582;10.112;2023-04-03T03:22:08;6.28;;;5.63;;
69856;SDS011;57147;53.582;10.112;2023-04-03T03:27:09;7.93;;;5.28;;
69856;SDS011;57147;53.582;10.112;2023-04-03T03:32:09;9.07;;;6.53;;
69856;SDS011;57147;53.582;10.112;2023-04-03T03:37:12;8.00;;;5.70;;
69856;SDS011;57147;53.582;10.112;2023-04-03T03:42:14;9.18;;;4.57;;
69856;SDS011;57147;53.582;10.112;2023-04-03T03:47:14;7.18;;;5.68;;
69856;SDS011;57147;53.582;10.112;2023-04-03T03:52:17;5.80;;;2.67;;
69856;SDS011;57147;53.582;10.112;2023-04-03T03:57:18;13.30;;;6.18;;
69856;SDS011;57147;53.582;10.112;2023-04-03T04:02:19;9.98;;;6.55;;
69856;SDS011;57147;53.582;10.112;2023-04-03T04:07:22;8.60;;;5.43;;
69856;SDS011;57147;53.582;10.112;2023-04-03T04:12:22;5.88;;;4.57;;
69856;SDS011;57147;53.582;10.112;2023-04-03T04:17:23;7.82;;;5.07;;
69856;SDS011;57147;53.582;10.112;2023-04-03T04:22:26;10.55;;;5.95;;
69856;SDS011;57147;53.582;10.112;2023-04-03T04:27:27;6.43;;;5.72;;
69856;SDS011;57147;53.582;10.112;2023-04-03T04:32:28;12.90;;;5.65;;
69856;SDS011;57147;53.582;10.112;2023-04-03T04:37:32;7.82;;;5.15;;
69856;SDS011;57147;53.582;10.112;2023-04-03T04:42:33;12.32;;;6.88;;
69856;SDS011;57147;53.582;10.112;2023-04-03T04:47:33;9.00;;;4.80;;
69856;SDS011;57147;53.582;10.112;2023-04-03T04:52:37;7.53;;;5.60;;
69856;SDS011;57147;53.582;10.112;2023-04-03T04:57:38;9.15;;;5.18;;
69856;SDS011;57147;53.582;10.112;2023-04-03T05:02:38;6.15;;;5.43;;
69856;SDS011;57147;53.582;10.112;2023-04-03T05:07:42;9.20;;;5.93;;
69856;SDS011;57147;53.582;10.112;2023-04-03T05:12:42;8.10;;;5.28;;
69856;SDS011;57147;53.582;10.112;2023-04-03T05:17:43;8.93;;;5.43;;
69856;SDS011;57147;53.582;10.112;2023-04-03T05:22:46;7.22;;;3.75;;
69856;SDS011;57147;53.582;10.112;2023-04-03T05:27:47;9.30;;;5.53;;
69856;SDS011;57147;53.582;10.112;2023-04-03T05:32:47;7.70;;;5.70;;
69856;SDS011;57147;53.582;10.112;2023-04-03T05:37:51;8.73;;;5.50;;
69856;SDS011;57147;53.582;10.112;2023-04-03T05:42:51;9.82;;;6.03;;
69856;SDS011;57147;53.582;10.112;2023-04-03T05:47:52;9.85;;;5.80;;
69856;SDS011;57147;53.582;10.112;2023-04-03T05:52:56;9.32;;;5.40;;
69856;SDS011;57147;53.582;10.112;2023-04-03T05:57:57;11.40;;;6.22;;
69856;SDS011;57147;53.582;10.112;2023-04-03T06:02:58;7.22;;;4.20;;
69856;SDS011;57147;53.582;10.112;2023-04-03T06:08:01;10.80;;;4.68;;
69856;SDS011;57147;53.582;10.112;2023-04-03T06:13:02;8.18;;;5.55;;
69856;SDS011;57147;53.582;10.112;2023-04-03T06:18:03;11.07;;;6.45;;
69856;SDS011;57147;53.582;10.112;2023-04-03T06:23:06;9.10;;;5.80;;
69856;SDS011;57147;53.582;10.112;2023-04-03T06:28:07;7.53;;;4.68;;
69856;SDS011;57147;53.582;10.112;2023-04-03T06:33:08;9.90;;;4.47;;
69856;SDS011;57147;53.582;10.112;2023-04-03T06:38:11;7.82;;;5.22;;
69856;SDS011;57147;53.582;10.112;2023-04-03T06:43:12;7.75;;;5.03;;
69856;SDS011;57147;53.582;10.112;2023-04-03T06:48:12;9.70;;;5.80;;
69856;SDS011;57147;53.582;10.112;2023-04-03T06:53:16;8.07;;;6.80;;
69856;SDS011;57147;53.582;10.112;2023-04-03T06:58:16;8.15;;;4.80;;
69856;SDS011;57147;53.582;10.112;2023-04-03T07:03:17;7.85;;;4.25;;
69856;SDS011;57147;53.582;10.112;2023-04-03T07:08:20;8.60;;;4.53;;
69856;SDS011;57147;53.582;10.112;2023-04-03T07:13:21;6.15;;;3.00;;
69856;SDS011;57147;53.582;10.112;2023-04-03T07:18:22;5.97;;;3.22;;
69856;SDS011;57147;53.582;10.112;2023-04-03T07:23:26;7.07;;;3.67;;
69856;SDS011;57147;53.582;10.112;2023-04-03T07:28:26;5.90;;;3.80;;
69856;SDS011;57147;53.582;10.112;2023-04-03T07:33:27;5.53;;;2.80;;
69856;SDS011;57147;53.582;10.112;2023-04-03T07:38:31;5.20;;;3.17;;
69856;SDS011;57147;53.582;10.112;2023-04-03T07:43:31;5.40;;;2.95;;
69856;SDS011;57147;53.582;10.112;2023-04-03T07:48:32;4.13;;;2.13;;
69856;SDS011;57147;53.582;10.112;2023-04-03T07:53:35;3.50;;;3.15;;
69856;SDS011;57147;53.582;10.112;2023-04-03T07:58:36;4.50;;;3.20;;
69856;SDS011;57147;53.582;10.112;2023-04-03T08:03:37;5.47;;;2.63;;
69856;SDS011;57147;53.582;10.112;2023-04-03T08:08:44;3.63;;;2.72;;
69856;SDS011;57147;53.582;10.112;2023-04-03T08:13:44;5.55;;;4.45;;
69856;SDS011;57147;53.582;10.112;2023-04-03T08:18:45;3.63;;;3.33;;
69856;SDS011;57147;53.582;10.112;2023-04-03T08:23:48;3.88;;;3.00;;
69856;SDS011;57147;53.582;10.112;2023-04-03T08:28:50;3.70;;;3.08;;
69856;SDS011;57147;53.582;10.112;2023-04-03T08:33:51;4.30;;;3.25;;
69856;SDS011;57147;53.582;10.112;2023-04-03T08:38:54;2.95;;;2.67;;
69856;SDS011;57147;53.582;10.112;2023-04-03T08:43:58;4.20;;;2.95;;
69856;SDS011;57147;53.582;10.112;2023-04-03T08:49:06;4.30;;;2.85;;
69856;SDS011;57147;53.582;10.112;2023-04-03T08:54:21;4.93;;;3.17;;
69856;SDS011;57147;53.582;10.112;2023-04-03T08:59:28;2.60;;;2.40;;
69856;SDS011;57147;53.582;10.112;2023-04-03T09:04:33;5.85;;;2.55;;
69856;SDS011;57147;53.582;10.112;2023-04-03T09:09:38;4.40;;;3.30;;
69856;SDS011;57147;53.582;10.112;2023-04-03T09:14:44;5.13;;;2.83;;
69856;SDS011;57147;53.582;10.112;2023-04-03T09:19:52;4.03;;;2.40;;
69856;SDS011;57147;53.582;10.112;2023-04-03T09:25:02;5.35;;;3.53;;
69856;SDS011;57147;53.582;10.112;2023-04-03T09:30:11;3.25;;;2.95;;
69856;SDS011;57147;53.582;10.112;2023-04-03T09:35:21;6.32;;;3.35;;
69856;SDS011;57147;53.582;10.112;2023-04-03T09:40:30;4.88;;;4.50;;
69856;SDS011;57147;53.582;10.112;2023-04-03T09:50:36;7.27;;;2.57;;
69856;SDS011;57147;53.582;10.112;2023-04-03T09:55:43;3.53;;;2.85;;
69856;SDS011;57147;53.582;10.112;2023-04-03T10:00:45;2.65;;;2.42;;
69856;SDS011;57147;53.582;10.112;2023-04-03T10:05:55;2.30;;;2.10;;
69856;SDS011;57147;53.582;10.112;2023-04-03T10:11:12;2.20;;;1.23;;
69856;SDS011;57147;53.582;10.112;2023-04-03T10:21:19;3.35;;;1.02;;
69856;SDS011;57147;53.582;10.112;2023-04-03T10:26:39;2.75;;;2.45;;
69856;SDS011;57147;53.582;10.112;2023-04-03T10:31:46;3.55;;;2.45;;
69856;SDS011;57147;53.582;10.112;2023-04-03T10:36:53;2.97;;;2.63;;
69856;SDS011;57147;53.582;10.112;2023-04-03T10:42:05;3.08;;;2.88;;
69856;SDS011;57147;53.582;10.112;2023-04-03T10:47:15;3.10;;;2.55;;
69856;SDS011;57147;53.582;10.112;2023-04-03T10:52:20;5.60;;;2.13;;
69856;SDS011;57147;53.582;10.112;2023-04-03T10:57:26;4.70;;;3.63;;
69856;SDS011;57147;53.582;10.112;2023-04-03T11:02:30;3.20;;;2.50;;
69856;SDS011;57147;53.582;10.112;2023-04-03T11:07:33;4.07;;;3.08;;
69856;SDS011;57147;53.582;10.112;2023-04-03T11:12:41;5.90;;;3.03;;
69856;SDS011;57147;53.582;10.112;2023-04-03T11:17:46;5.70;;;3.13;;
69856;SDS011;57147;53.582;10.112;2023-04-03T11:22:51;2.97;;;2.22;;
69856;SDS011;57147;53.582;10.112;2023-04-03T11:28:00;4.25;;;3.40;;
69856;SDS011;57147;53.582;10.112;2023-04-03T11:33:09;3.38;;;2.10;;
69856;SDS011;57147;53.582;10.112;2023-04-03T11:38:23;2.97;;;2.53;;
69856;SDS011;57147;53.582;10.112;2023-04-03T11:43:31;3.88;;;2.47;;
69856;SDS011;57147;53.582;10.112;2023-04-03T11:48:46;2.53;;;2.28;;
69856;SDS011;57147;53.582;10.112;2023-04-03T11:53:49;3.97;;;3.63;;
69856;SDS011;57147;53.582;10.112;2023-04-03T12:04:28;5.22;;;3.28;;
69856;SDS011;57147;53.582;10.112;2023-04-03T12:09:30;3.53;;;3.22;;
69856;SDS011;57147;53.582;10.112;2023-04-03T12:14:34;5.22;;;3.08;;
69856;SDS011;57147;53.582;10.112;2023-04-03T12:19:38;4.20;;;2.38;;
69856;SDS011;57147;53.582;10.112;2023-04-03T12:24:40;3.15;;;2.60;;
69856;SDS011;57147;53.582;10.112;2023-04-03T12:29:43;3.13;;;2.85;;
69856;SDS011;57147;53.582;10.112;2023-04-03T12:35:04;4.95;;;3.72;;
69856;SDS011;57147;53.582;10.112;2023-04-03T12:40:15;2.10;;;1.85;;
69856;SDS011;57147;53.582;10.112;2023-04-03T12:45:21;2.50;;;2.10;;
69856;SDS011;57147;53.582;10.112;2023-04-03T12:50:27;3.10;;;2.13;;
69856;SDS011;57147;53.582;10.112;2023-04-03T12:55:30;3.72;;;2.67;;
69856;SDS011;57147;53.582;10.112;2023-04-03T13:00:32;3.58;;;3.28;;
69856;SDS011;57147;53.582;10.112;2023-04-03T13:05:36;3.55;;;3.20;;
69856;SDS011;57147;53.582;10.112;2023-04-03T13:10:43;1.88;;;1.73;;
69856;SDS011;57147;53.582;10.112;2023-04-03T13:15:51;2.58;;;2.30;;
69856;SDS011;57147;53.582;10.112;2023-04-03T13:20:57;3.70;;;2.38;;
69856;SDS011;57147;53.582;10.112;2023-04-03T13:26:02;2.10;;;1.90;;
69856;SDS011;57147;53.582;10.112;2023-04-03T13:31:05;2.25;;;1.65;;
69856;SDS011;57147;53.582;10.112;2023-04-03T13:36:15;3.05;;;2.60;;
69856;SDS011;57147;53.582;10.112;2023-04-03T13:41:24;2.65;;;1.98;;
69856;SDS011;57147;53.582;10.112;2023-04-03T13:46:27;2.38;;;2.17;;
69856;SDS011;57147;53.582;10.112;2023-04-03T13:51:31;3.45;;;3.25;;
69856;SDS011;57147;53.582;10.112;2023-04-03T13:56:33;2.85;;;2.65;;
69856;SDS011;57147;53.582;10.112;2023-04-03T14:01:41;2.72;;;2.53;;
69856;SDS011;57147;53.582;10.112;2023-04-03T14:06:47;4.13;;;3.35;;
69856;SDS011;57147;53.582;10.112;2023-04-03T14:11:48;2.22;;;2.03;;
69856;SDS011;57147;53.582;10.112;2023-04-03T14:16:51;3.92;;;3.63;;
69856;SDS011;57147;53.582;10.112;2023-04-03T14:21:56;4.10;;;3.65;;
69856;SDS011;57147;53.582;10.112;2023-04-03T14:26:58;2.97;;;2.65;;
69856;SDS011;57147;53.582;10.112;2023-04-03T14:31:58;3.22;;;2.92;;
69856;SDS011;57147;53.582;10.112;2023-04-03T14:37:02;3.45;;;2.78;;
69856;SDS011;57147;53.582;10.112;2023-04-03T14:42:04;3.88;;;2.53;;
69856;SDS011;57147;53.582;10.112;2023-04-03T14:47:05;2.88;;;2.60;;
69856;SDS011;57147;53.582;10.112;2023-04-03T14:52:16;2.53;;;1.83;;
69856;SDS011;57147;53.582;10.112;2023-04-03T14:57:19;4.72;;;3.35;;
69856;SDS011;57147;53.582;10.112;2023-04-03T15:02:27;3.40;;;2.63;;
69856;SDS011;57147;53.582;10.112;2023-04-03T15:07:32;4.40;;;3.97;;
69856;SDS011;57147;53.582;10.112;2023-04-03T15:12:34;8.82;;;6.95;;
69856;SDS011;57147;53.582;10.112;2023-04-03T15:17:35;4.10;;;3.03;;
69856;SDS011;57147;53.582;10.112;2023-04-03T15:22:39;3.00;;;1.98;;
69856;SDS011;57147;53.582;10.112;2023-04-03T15:27:40;5.88;;;3.60;;
69856;SDS011;57147;53.582;10.112;2023-04-03T15:32:41;3.38;;;3.03;;
69856;SDS011;57147;53.582;10.112;2023-04-03T15:37:44;2.53;;;2.33;;
69856;SDS011;57147;53.582;10.112;2023-04-03T15:42:45;4.65;;;2.97;;
69856;SDS011;57147;53.582;10.112;2023-04-03T15:47:46;3.50;;;2.70;;
69856;SDS011;57147;53.582;10.112;2023-04-03T15:52:49;5.45;;;2.40;;
69856;SDS011;57147;53.582;10.112;2023-04-03T15:57:50;3.03;;;1.88;;
69856;SDS011;57147;53.582;10.112;2023-04-03T16:02:52;3.13;;;2.47;;
69856;SDS011;57147;53.582;10.112;2023-04-03T16:07:57;1.90;;;1.20;;
69856;SDS011;57147;53.582;10.112;2023-04-03T16:12:59;3.15;;;2.63;;
69856;SDS011;57147;53.582;10.112;2023-04-03T16:18:00;2.47;;;1.88;;
69856;SDS011;57147;53.582;10.112;2023-04-03T16:23:03;3.88;;;3.38;;
69856;SDS011;57147;53.582;10.112;2023-04-03T16:28:04;3.17;;;0.75;;
69856;SDS011;57147;53.582;10.112;2023-04-03T16:33:05;3.92;;;1.70;;
69856;SDS011;57147;53.582;10.112;2023-04-03T16:38:08;3.38;;;2.45;;
69856;SDS011;57147;53.582;10.112;2023-04-03T16:43:09;4.78;;;2.88;;
69856;SDS011;57147;53.582;10.112;2023-04-03T16:48:10;3.55;;;2.17;;
69856;SDS011;57147;53.582;10.112;2023-04-03T16:53:13;3.75;;;1.58;;
69856;SDS011;57147;53.582;10.112;2023-04-03T16:58:15;4.00;;;1.98;;
69856;SDS011;57147;53.582;10.112;2023-04-03T17:03:16;3.83;;;2.88;;
69856;SDS011;57147;53.582;10.112;2023-04-03T17:08:19;3.08;;;2.53;;
69856;SDS011;57147;53.582;10.112;2023-04-03T17:13:19;3.88;;;2.75;;
69856;SDS011;57147;53.582;10.112;2023-04-03T17:18:20;3.60;;;2.30;;
69856;SDS011;57147;53.582;10.112;2023-04-03T17:23:23;4.40;;;2.92;;
69856;SDS011;57147;53.582;10.112;2023-04-03T17:28:25;3.85;;;3.22;;
69856;SDS011;57147;53.582;10.112;2023-04-03T17:33:26;4.20;;;3.17;;
69856;SDS011;57147;53.582;10.112;2023-04-03T17:38:30;4.43;;;3.38;;
69856;SDS011;57147;53.582;10.112;2023-04-03T17:43:31;4.28;;;3.03;;
69856;SDS011;57147;53.582;10.112;2023-04-03T17:48:32;3.22;;;2.95;;
69856;SDS011;57147;53.582;10.112;2023-04-03T17:53:36;3.60;;;3.17;;
69856;SDS011;57147;53.582;10.112;2023-04-03T17:58:36;9.10;;;5.65;;
69856;SDS011;57147;53.582;10.112;2023-04-03T18:03:37;5.25;;;4.85;;
69856;SDS011;57147;53.582;10.112;2023-04-03T18:08:41;4.88;;;4.45;;
69856;SDS011;57147;53.582;10.112;2023-04-03T18:13:45;5.35;;;4.70;;
69856;SDS011;57147;53.582;10.112;2023-04-03T18:18:46;6.43;;;4.45;;
69856;SDS011;57147;53.582;10.112;2023-04-03T18:23:50;5.85;;;3.63;;
69856;SDS011;57147;53.582;10.112;2023-04-03T18:28:55;7.07;;;6.47;;
69856;SDS011;57147;53.582;10.112;2023-04-03T18:33:58;7.13;;;6.38;;
69856;SDS011;57147;53.582;10.112;2023-04-03T18:39:01;5.65;;;5.28;;
69856;SDS011;57147;53.582;10.112;2023-04-03T18:44:04;5.75;;;5.28;;
69856;SDS011;57147;53.582;10.112;2023-04-03T18:49:07;7.47;;;6.85;;
69856;SDS011;57147;53.582;10.112;2023-04-03T18:54:11;6.40;;;5.65;;
69856;SDS011;57147;53.582;10.112;2023-04-03T18:59:12;5.75;;;4.30;;
69856;SDS011;57147;53.582;10.112;2023-04-03T19:04:13;4.05;;;3.72;;
69856;SDS011;57147;53.582;10.112;2023-04-03T19:09:16;5.18;;;4.80;;
69856;SDS011;57147;53.582;10.112;2023-04-03T19:14:17;6.03;;;5.53;;
69856;SDS011;57147;53.582;10.112;2023-04-03T19:19:17;7.32;;;6.72;;
69856;SDS011;57147;53.582;10.112;2023-04-03T19:24:20;6.53;;;6.03;;
69856;SDS011;57147;53.582;10.112;2023-04-03T19:29:21;3.97;;;3.58;;
69856;SDS011;57147;53.582;10.112;2023-04-03T19:34:22;9.40;;;7.25;;
69856;SDS011;57147;53.582;10.112;2023-04-03T19:39:25;9.38;;;5.95;;
69856;SDS011;57147;53.582;10.112;2023-04-03T19:44:26;8.07;;;7.30;;
69856;SDS011;57147;53.582;10.112;2023-04-03T19:49:26;10.10;;;6.18;;
69856;SDS011;57147;53.582;10.112;2023-04-03T19:54:30;6.72;;;5.72;;
69856;SDS011;57147;53.582;10.112;2023-04-03T19:59:30;6.68;;;5.40;;
69856;SDS011;57147;53.582;10.112;2023-04-03T20:04:31;6.53;;;4.72;;
69856;SDS011;57147;53.582;10.112;2023-04-03T20:09:34;9.23;;;8.18;;
69856;SDS011;57147;53.582;10.112;2023-04-03T20:14:35;8.13;;;3.72;;
69856;SDS011;57147;53.582;10.112;2023-04-03T20:19:36;7.95;;;6.32;;
69856;SDS011;57147;53.582;10.112;2023-04-03T20:24:39;7.53;;;4.40;;
69856;SDS011;57147;53.582;10.112;2023-04-03T20:29:40;8.80;;;5.55;;
69856;SDS011;57147;53.582;10.112;2023-04-03T20:34:40;10.13;;;5.57;;
69856;SDS011;57147;53.582;10.112;2023-04-03T20:39:44;7.80;;;4.65;;
69856;SDS011;57147;53.582;10.112;2023-04-03T20:44:44;4.47;;;4.03;;
69856;SDS011;57147;53.582;10.112;2023-04-03T20:49:45;4.82;;;3.13;;
69856;SDS011;57147;53.582;10.112;2023-04-03T20:54:48;6.57;;;3.88;;
69856;SDS011;57147;53.582;10.112;2023-04-03T20:59:50;4.10;;;2.75;;
69856;SDS011;57147;53.582;10.112;2023-04-03T21:04:51;4.75;;;4.00;;
69856;SDS011;57147;53.582;10.112;2023-04-03T21:20:51;9.27;;;5.00;;
69856;SDS011;57147;53.582;10.112;2023-04-03T21:25:51;8.45;;;7.55;;
69856;SDS011;57147;53.582;10.112;2023-04-03T21:30:52;7.85;;;5.18;;
69856;SDS011;57147;53.582;10.112;2023-04-03T21:35:55;6.40;;;5.03;;
69856;SDS011;57147;53.582;10.112;2023-04-03T21:40:56;7.07;;;6.47;;
69856;SDS011;57147;53.582;10.112;2023-04-03T21:45:57;10.32;;;7.43;;
69856;SDS011;57147;53.582;10.112;2023-04-03T21:51:04;11.15;;;5.57;;
69856;SDS011;57147;53.582;10.112;2023-04-03T21:56:05;7.97;;;5.68;;
69856;SDS011;57147;53.582;10.112;2023-04-03T22:01:09;7.30;;;5.60;;
69856;SDS011;57147;53.582;10.112;2023-04-03T22:06:15;5.32;;;2.58;;
69856;SDS011;57147;53.582;10.112;2023-04-03T22:11:16;10.57;;;6.32;;
69856;SDS011;57147;53.582;10.112;2023-04-03T22:16:17;6.57;;;5.00;;
69856;SDS011;57147;53.582;10.112;2023-04-03T22:21:20;8.30;;;4.80;;
69856;SDS011;57147;53.582;10.112;2023-04-03T22:26:21;8.10;;;5.82;;
69856;SDS011;57147;53.582;10.112;2023-04-03T22:31:22;7.28;;;5.32;;
69856;SDS011;57147;53.582;10.112;2023-04-03T22:36:25;7.57;;;5.20;;
69856;SDS011;57147;53.582;10.112;2023-04-03T22:41:28;8.75;;;5.50;;
69856;SDS011;57147;53.582;10.112;2023-04-03T22:46:29;12.07;;;6.05;;
69856;SDS011;57147;53.582;10.112;2023-04-03T22:51:32;7.78;;;5.47;;
69856;SDS011;57147;53.582;10.112;2023-04-03T22:56:33;7.50;;;4.90;;
69856;SDS011;57147;53.582;10.112;2023-04-03T23:01:38;6.80;;;4.95;;
69856;SDS011;57147;53.582;10.112;2023-04-03T23:06:42;7.20;;;4.45;;
69856;SDS011;57147;53.582;10.112;2023-04-03T23:11:43;6.68;;;3.83;;
69856;SDS011;57147;53.582;10.112;2023-04-03T23:16:44;5.90;;;4.55;;
69856;SDS011;57147;53.582;10.112;2023-04-03T23:21:48;6.82;;;3.30;;
69856;SDS011;57147;53.582;10.112;2023-04-03T23:26:52;6.25;;;4.55;;
69856;SDS011;57147;53.582;10.112;2023-04-03T23:31:52;5.90;;;4.20;;
69856;SDS011;57147;53.582;10.112;2023-04-03T23:36:56;4.63;;;3.35;;
69856;SDS011;57147;53.582;10.112;2023-04-03T23:41:58;5.22;;;3.53;;
69856;SDS011;57147;53.582;10.112;2023-04-03T23:46:59;6.53;;;4.05;;
69856;SDS011;57147;53.582;10.112;2023-04-03T23:52:02;4.68;;;3.75;;
69856;SDS011;57147;53.582;10.112;2023-04-03T23:57:02;6.35;;;3.83;;
